EST,Max TemperatureF,Mean TemperatureF,Min TemperatureF,Max Dew PointF,MeanDew PointF,Min DewpointF,Max Humidity, Mean Humidity, Min Humidity, Max Sea Level PressureIn, Mean Sea Level PressureIn, Min Sea Level PressureIn, Max VisibilityMiles, Mean VisibilityMiles, Min VisibilityMiles, Max Wind SpeedMPH, Mean Wind SpeedMPH, Max Gust SpeedMPH,PrecipitationIn, CloudCover, Events, WindDirDegrees
2013-11-1,72,64,56,64,62,56,93,81,68,29.82,29.72,29.64,10,9,2,18,9,30,0.13,5,Rain,219
2013-11-2,70,58,46,56,46,33,100,64,28,29.95,29.76,29.68,10,6,0,18,7,26,0.00,4,Fog,275
2013-11-3,63,50,37,37,34,31,85,60,34,30.38,30.16,29.96,10,10,10,17,6,23,0.00,0,,337
2013-11-4,56,45,34,29,28,26,75,55,35,30.58,30.52,30.39,10,10,10,15,5,17,0.00,0,,54
2013-11-5,60,48,36,45,35,27,71,59,46,30.59,30.52,30.45,10,10,10,9,5,,0.00,7,,33
2013-11-6,72,60,47,51,46,39,89,67,44,30.46,30.30,30.10,10,10,10,8,2,12,0.00,4,,46
2013-11-7,67,52,37,54,44,30,96,68,40,30.12,30.02,29.93,10,10,8,21,6,25,0.00,4,,282
2013-11-8,57,43,29,31,25,21,85,56,26,30.33,30.25,30.14,10,10,10,17,4,26,0.00,0,,293
2013-11-9,56,41,26,30,27,24,92,61,30,30.38,30.28,30.15,10,10,10,13,4,18,0.00,0,,217
2013-11-10,72,54,36,36,28,19,70,43,16,30.26,30.14,30.04,10,10,10,21,10,29,0.00,0,,280
2013-11-11,61,45,28,28,26,23,78,51,23,30.35,30.24,30.12,10,10,10,13,4,,0.00,0,,221
2013-11-12,61,47,32,36,27,12,76,56,35,30.45,30.19,30.03,10,10,10,21,9,26,0.00,3,,346
2013-11-13,47,35,22,18,15,12,68,47,25,30.55,30.48,30.44,10,10,10,15,5,24,0.00,0,,314
2013-11-14,61,41,21,22,18,14,77,47,16,30.45,30.37,30.31,10,10,10,13,4,17,0.00,0,,220
2013-11-15,63,47,30,47,32,21,69,48,27,30.33,30.26,30.20,10,10,9,13,5,17,T,3,Rain,206
2013-11-16,60,55,50,55,51,48,96,87,78,30.28,30.25,30.22,10,5,2,7,2,,0.08,8,Rain,75
2013-11-17,66,61,55,62,56,53,93,83,73,30.22,30.09,29.83,10,6,0,14,4,23,0.01,7,Fog-Rain,195
2013-11-18,72,61,50,64,47,26,93,58,23,29.99,29.86,29.78,10,9,2,22,8,30,0.01,4,Rain,281
2013-11-19,56,47,37,28,26,23,59,44,29,30.33,30.16,29.99,10,10,10,16,6,22,0.00,0,,16
2013-11-20,52,44,36,31,26,24,70,53,35,30.48,30.43,30.35,10,10,10,16,8,21,0.00,2,,47
2013-11-21,55,47,39,42,36,30,77,68,59,30.53,30.47,30.40,10,10,10,10,4,14,0.00,8,,30
2013-11-22,69,59,48,57,49,41,90,79,67,30.42,30.24,30.06,10,10,10,21,7,21,T,7,Rain,236
2013-11-23,60,50,40,57,38,14,93,59,24,30.19,30.10,30.06,10,8,0,21,9,28,0.00,3,Fog,325
2013-11-24,40,30,20,14,5,-1,52,36,20,30.56,30.43,30.22,10,10,8,21,9,29,0.00,0,,343
2013-11-25,42,29,15,13,9,5,80,50,20,30.58,30.49,30.37,10,10,10,8,2,13,0.00,1,,214
2013-11-26,46,39,32,45,35,11,100,66,32,30.35,29.95,29.60,10,6,2,15,4,21,2.11,8,Rain,30
2013-11-27,45,37,29,43,32,14,100,75,49,30.17,29.72,29.52,10,8,2,20,9,26,0.56,7,Rain-Snow,301
2013-11-28,42,31,20,22,17,13,84,59,34,30.47,30.37,30.19,10,10,10,9,3,15,0.00,0,,261
2013-11-29,50,36,21,26,21,18,88,60,31,30.66,30.56,30.47,10,10,10,14,5,17,0.00,0,,30
2013-11-30,46,36,25,25,22,18,84,63,41,30.67,30.56,30.38,10,10,10,10,3,,0.00,0,,38